• Join FlightAware (Why Join?)
  • Login
  • US Flag 
06:37PM EDT


 

Airport Tracker/Info


-or-


 

Live Flight TrackerFlight Track Log ✈ PHM15A ✈ 16-Jul-2013 ✈ 7LS3

Flight Track Log - Related Links

Times and Time Zones

All times are in EDT time to prevent confusion due to time zone crossing. See the PHM15A flight status page for this flight to view local times or setup timezone preferences in your user account.

Time Position Orientation Groundspeed Altitude Reporting Facility
EDT Latitude Longitude Course Direction KTS MPH feet Rate Location/Type
03:29PM 27.2561 -91.0506 25° Northeast 133 153 5,000  Level Houston Center
03:30PM 27.2967 -91.0528 357° North 146 168 5,000  Level Houston Center
03:31PM 27.3375 -91.0539 359° North 149 171 5,000  Level Houston Center
03:32PM 27.3864 -91.0550 359° North 148 170 5,000  Level Houston Center
03:33PM 27.4278 -91.0558 359° North 147 169 5,000  Level Houston Center
03:34PM 27.4678 -91.0564 359° North 145 167 5,000  Level Houston Center
03:35PM 27.5075 -91.0572 359° North 142 163 5,000  Level Houston Center
03:36PM 27.5478 -91.0581 359° North 148 170 5,000  Level Houston Center
03:37PM 27.5881 -91.0589 359° North 144 166 5,000  Level Houston Center
03:38PM 27.6364 -91.0597 359° North 145 167 5,000  Level Houston Center
03:39PM 27.6764 -91.0606 359° North 143 165 5,000  Level Houston Center
03:40PM 27.7172 -91.0614 359° North 144 166 5,000  Level Houston Center
03:41PM 27.7572 -91.0622 359° North 145 167 5,000  Level Houston Center
03:42PM 27.7978 -91.0628 359° North 144 166 5,000  Level Houston Center
03:43PM 27.8383 -91.0636 359° North 145 167 5,000  Level Houston Center
03:44PM 27.8794 -91.0644 359° North 149 171 5,000  Level Houston Center
03:45PM 27.9281 -91.0656 359° North 145 167 5,000  Level Houston Center
03:46PM 27.9689 -91.0664 359° North 146 168 5,000  Level Houston Center
03:47PM 28.0094 -91.0672 359° North 147 169 5,000  Level Houston Center
03:48PM 28.0506 -91.0678 359° North 147 169 5,000  Level Houston Center
03:49PM 28.0919 -91.0689 359° North 148 170 5,000  Level Houston Center
03:50PM 28.1336 -91.0694 359° North 149 171 5,000  Level Houston Center
03:51PM 28.1836 -91.0706 359° North 148 170 5,000  Level Houston Center
03:52PM 28.2256 -91.0714 359° North 154 177 5,000  Level Houston Center
03:53PM 28.2692 -91.0722 359° North 157 181 5,000  Level Houston Center
03:54PM 28.3117 -91.0731 359° North 153 176 5,000  Level Houston Center
03:55PM 28.3544 -91.0739 359° North 154 177 5,000  Level Houston Center
03:56PM 28.3975 -91.0747 359° North 156 180 5,000  Level Houston Center
03:58PM 28.4489 -91.0758 359° North 156 180 5,000  Level Houston Center
03:59PM 28.4917 -91.0767 359° North 153 176 5,000  Level Houston Center
04:00PM 28.5350 -91.0775 359° North 155 178 5,000  Level Houston Center
04:01PM 28.5783 -91.0783 359° North 156 180 5,000  Level Houston Center
04:02PM 28.6214 -91.0792 359° North 156 180 5,000  Level Houston Center
04:03PM 28.6644 -91.0800 359° North 155 178 5,000  Level Houston Center
04:04PM 28.7083 -91.0811 359° North 156 180 5,000  Level Houston Center
04:05PM 28.7600 -91.0819 359° North 155 178 5,000  Level Houston Center
04:06PM 28.8031 -91.0828 359° North 156 180 5,000  Level Houston Center
04:07PM 28.8467 -91.0836 359° North 156 180 5,000  Level Houston Center
04:08PM 28.8906 -91.0847 359° North 157 181 5,000  Level Houston Center
04:09PM 28.9333 -91.0856 359° North 155 178 5,000  Level Houston Center
04:10PM 28.9772 -91.0864 359° North 153 176 5,000  Level Houston Center
04:11PM 29.0286 -91.0875 359° North 154 177 5,000  Level Houston Center
04:12PM 29.0714 -91.0883 359° North 155 178 5,000  Level Houston Center
04:13PM 29.1158 -91.0892 359° North 160 184 5,000  Level Houston Center
04:14PM 29.1592 -91.0900 359° North 154 177 5,000  Level Houston Center
04:15PM 29.1883 -91.0925 356° North 156 180 5,000 60 Level Houston Center
04:15PM 29.2092 -91.0919 North 155 178 5,100  Climbing Houston Center
04:16PM 29.2453 -91.0917 360° North 154 177 5,000 -60 Descending Houston Center
04:17PM 29.2883 -91.0928 359° North 153 176 5,000  Level Houston Center
04:18PM 29.3400 -91.0936 359° North 154 177 5,000  Level Houston Center